Lady Eme — ZJL9263 — position and weather

sailwx.info

Track history (hours):
 
Tides and Currents Weather Stations Pressure Air Temp Water Temp Dewpoint Dewpoint Depression Visibility Wind Speed Wind Dir Waves Ship Positions

Lady Eme

Last reported at 2018-Jul-16 15:02 UTC. Time now 2018-Jul-17 09:32 UTC.
Position N 25°41' W 079°48'.

Length 27 m.

Type: Pleasure craft. MMSI: 378112282.

Date/timePositionNaut miles runAvg speedWind from/ knotsBaromVisibWave heightAir tempDewpointWater temp
2018-Jul-16 15:02N 25°41' W 079°48'2 9.3
2018-Jul-16 14:51N 25°41' W 079°50'3 9.1
2018-Jul-16 14:30N 25°42' W 079°54'4 9.1
2018-Jul-16 14:00N 25°43' W 079°58'5 9.0
2018-Jul-16 13:30N 25°44' W 080°03'5 9.4
2018-Jul-16 13:00N 25°46' W 080°08'3 6.3
2018-Jul-16 12:30N 25°47' W 080°11'2 3.9
2018-Jul-16 12:00N 25°48' W 080°09'  
2018-Jul-10 23:02N 25°48' W 080°09'0 0.0
2018-Jul-10 22:59N 25°48' W 080°09'0 0.0
2018-Jul-10 22:29N 25°48' W 080°09'2 4.1
2018-Jul-10 22:00N 25°47' W 080°11'2 4.4
2018-Jul-10 21:28N 25°46' W 080°09'916.3
2018-Jul-10 20:57N 25°54' W 080°06'510.3
2018-Jul-10 20:26N 25°60' W 080°06'510.0
2018-Jul-10 19:56N 26°05' W 080°06'2 3.7
2018-Jul-10 19:26N 26°04' W 080°07'0 0.0
2018-Jul-09 21:04N 26°04' W 080°08'0 0.0
2018-Jul-09 20:49N 26°04' W 080°08'0 0.0
2018-Jul-09 20:22N 26°04' W 080°08'0 0.0
2018-Jul-09 19:52N 26°04' W 080°08'0 0.0
2018-Jul-09 19:22N 26°04' W 080°08'0 0.2
2018-Jul-09 19:00N 26°04' W 080°08'3 5.7
2018-Jul-09 18:30N 26°06' W 080°06'917.6
2018-Jul-09 18:00N 26°01' W 079°57'816.3
2018-Jul-09 17:30N 25°57' W 079°49'  
Track history (hours):
 
Tides and Currents Weather Stations Pressure Air Temp Water Temp Dewpoint Dewpoint Depression Visibility Wind Speed Wind Dir Waves Ship Positions

Lady Eme

Last reported at 2018-Jul-16 15:02 UTC. Time now 2018-Jul-17 09:32 UTC.
Position N 25°41' W 079°48'.

Length 27 m.

Type: Pleasure craft. MMSI: 378112282.

Date/timePositionNaut miles runAvg speedWind from/ knotsBaromVisibWave heightAir tempDewpointWater temp
2018-Jul-16 15:02N 25°41' W 079°48'2 9.3
2018-Jul-16 14:51N 25°41' W 079°50'3 9.1
2018-Jul-16 14:30N 25°42' W 079°54'4 9.1
2018-Jul-16 14:00N 25°43' W 079°58'5 9.0
2018-Jul-16 13:30N 25°44' W 080°03'5 9.4
2018-Jul-16 13:00N 25°46' W 080°08'3 6.3
2018-Jul-16 12:30N 25°47' W 080°11'2 3.9
2018-Jul-16 12:00N 25°48' W 080°09'  
2018-Jul-10 23:02N 25°48' W 080°09'0 0.0
2018-Jul-10 22:59N 25°48' W 080°09'0 0.0
2018-Jul-10 22:29N 25°48' W 080°09'2 4.1
2018-Jul-10 22:00N 25°47' W 080°11'2 4.4
2018-Jul-10 21:28N 25°46' W 080°09'916.3
2018-Jul-10 20:57N 25°54' W 080°06'510.3
2018-Jul-10 20:26N 25°60' W 080°06'510.0
2018-Jul-10 19:56N 26°05' W 080°06'2 3.7
2018-Jul-10 19:26N 26°04' W 080°07'0 0.0
2018-Jul-09 21:04N 26°04' W 080°08'0 0.0
2018-Jul-09 20:49N 26°04' W 080°08'0 0.0
2018-Jul-09 20:22N 26°04' W 080°08'0 0.0
2018-Jul-09 19:52N 26°04' W 080°08'0 0.0
2018-Jul-09 19:22N 26°04' W 080°08'0 0.2
2018-Jul-09 19:00N 26°04' W 080°08'3 5.7
2018-Jul-09 18:30N 26°06' W 080°06'917.6
2018-Jul-09 18:00N 26°01' W 079°57'816.3
2018-Jul-09 17:30N 25°57' W 079°49'  

Dump ship's entire track history